sensor_id;sensor_type;location;lat;lon;timestamp;pressure;altitude;pressure_sealevel;temperature;humidity
28344;BME280;15597;50.914;6.638;2023-11-21T00:01:54;100241.22;;;14.24;58.33
28344;BME280;15597;50.914;6.638;2023-11-21T00:04:20;100249.09;;;14.24;58.35
28344;BME280;15597;50.914;6.638;2023-11-21T00:06:46;100254.38;;;14.24;58.49
28344;BME280;15597;50.914;6.638;2023-11-21T00:09:13;100247.41;;;14.23;58.36
28344;BME280;15597;50.914;6.638;2023-11-21T00:11:41;100250.88;;;14.23;58.47
28344;BME280;15597;50.914;6.638;2023-11-21T00:14:07;100250.88;;;14.23;58.57
28344;BME280;15597;50.914;6.638;2023-11-21T00:16:33;100248.25;;;14.23;58.44
28344;BME280;15597;50.914;6.638;2023-11-21T00:18:59;100248.19;;;14.25;58.69
28344;BME280;15597;50.914;6.638;2023-11-21T00:21:25;100245.47;;;14.26;58.45
28344;BME280;15597;50.914;6.638;2023-11-21T00:23:50;100254.25;;;14.27;58.52
28344;BME280;15597;50.914;6.638;2023-11-21T00:26:16;100254.28;;;14.25;58.10
28344;BME280;15597;50.914;6.638;2023-11-21T00:28:45;100250.03;;;14.23;58.17
28344;BME280;15597;50.914;6.638;2023-11-21T00:31:11;100265.06;;;14.19;58.40
28344;BME280;15597;50.914;6.638;2023-11-21T00:33:36;100265.34;;;14.13;58.22
28344;BME280;15597;50.914;6.638;2023-11-21T00:36:02;100268.97;;;14.10;58.56
28344;BME280;15597;50.914;6.638;2023-11-21T00:38:28;100261.19;;;14.07;58.80
28344;BME280;15597;50.914;6.638;2023-11-21T00:40:57;100261.31;;;14.04;58.60
28344;BME280;15597;50.914;6.638;2023-11-21T00:43:23;100261.31;;;14.04;58.85
28344;BME280;15597;50.914;6.638;2023-11-21T00:45:50;100262.16;;;14.05;58.68
28344;BME280;15597;50.914;6.638;2023-11-21T00:48:16;100263.03;;;14.05;59.02
28344;BME280;15597;50.914;6.638;2023-11-21T00:50:43;100264.75;;;14.06;58.67
28344;BME280;15597;50.914;6.638;2023-11-21T00:53:09;100268.16;;;14.08;58.87
28344;BME280;15597;50.914;6.638;2023-11-21T00:55:36;100268.16;;;14.08;58.63
28344;BME280;15597;50.914;6.638;2023-11-21T00:58:03;100274.22;;;14.10;58.55
28344;BME280;15597;50.914;6.638;2023-11-21T01:00:29;100282.16;;;14.09;58.45
28344;BME280;15597;50.914;6.638;2023-11-21T01:02:55;100280.41;;;14.09;58.73
28344;BME280;15597;50.914;6.638;2023-11-21T01:05:21;100289.09;;;14.11;58.66
28344;BME280;15597;50.914;6.638;2023-11-21T01:07:47;100303.03;;;14.13;58.82
28344;BME280;15597;50.914;6.638;2023-11-21T01:10:12;100289.81;;;14.15;58.31
28344;BME280;15597;50.914;6.638;2023-11-21T01:12:38;100296.84;;;14.14;58.69
28344;BME280;15597;50.914;6.638;2023-11-21T01:15:05;100291.72;;;14.11;58.40
28344;BME280;15597;50.914;6.638;2023-11-21T01:17:34;100307.75;;;14.05;58.49
28344;BME280;15597;50.914;6.638;2023-11-21T01:20:03;100301.81;;;14.00;58.63
28344;BME280;15597;50.914;6.638;2023-11-21T01:22:32;100296.56;;;14.00;58.71
28344;BME280;15597;50.914;6.638;2023-11-21T01:24:58;100293.19;;;13.96;58.61
28344;BME280;15597;50.914;6.638;2023-11-21T01:27:23;100302.06;;;13.94;59.10
28344;BME280;15597;50.914;6.638;2023-11-21T01:29:49;100306.53;;;13.92;59.13
28344;BME280;15597;50.914;6.638;2023-11-21T01:32:19;100306.59;;;13.90;59.22
28344;BME280;15597;50.914;6.638;2023-11-21T01:34:44;100307.47;;;13.91;59.16
28344;BME280;15597;50.914;6.638;2023-11-21T01:37:10;100312.72;;;13.91;59.06
28344;BME280;15597;50.914;6.638;2023-11-21T01:39:37;100311.84;;;13.90;59.17
28344;BME280;15597;50.914;6.638;2023-11-21T01:42:05;100307.47;;;13.91;58.80
28344;BME280;15597;50.914;6.638;2023-11-21T01:44:30;100317.97;;;13.91;58.93
28344;BME280;15597;50.914;6.638;2023-11-21T01:46:56;100317.97;;;13.91;58.83
28344;BME280;15597;50.914;6.638;2023-11-21T01:49:23;100320.78;;;13.86;59.16
28344;BME280;15597;50.914;6.638;2023-11-21T01:51:49;100327.06;;;13.82;58.91
28344;BME280;15597;50.914;6.638;2023-11-21T01:54:16;100331.59;;;13.78;59.13
28344;BME280;15597;50.914;6.638;2023-11-21T01:56:45;100322.91;;;13.76;59.10
28344;BME280;15597;50.914;6.638;2023-11-21T01:59:12;100324.72;;;13.74;59.37
28344;BME280;15597;50.914;6.638;2023-11-21T02:01:39;100330.91;;;13.73;59.18
28344;BME280;15597;50.914;6.638;2023-11-21T02:04:06;100329.28;;;13.70;59.35
28344;BME280;15597;50.914;6.638;2023-11-21T02:06:34;100329.31;;;13.69;58.92
28344;BME280;15597;50.914;6.638;2023-11-21T02:09:00;100327.59;;;13.68;59.15
28344;BME280;15597;50.914;6.638;2023-11-21T02:11:26;100338.13;;;13.68;59.79
28344;BME280;15597;50.914;6.638;2023-11-21T02:13:53;100331.09;;;13.68;59.06
28344;BME280;15597;50.914;6.638;2023-11-21T02:16:19;100339.84;;;13.69;59.38
28344;BME280;15597;50.914;6.638;2023-11-21T02:18:49;100342.53;;;13.67;59.37
28344;BME280;15597;50.914;6.638;2023-11-21T02:21:15;100349.50;;;13.68;59.26
28344;BME280;15597;50.914;6.638;2023-11-21T02:23:41;100349.50;;;13.68;59.44
28344;BME280;15597;50.914;6.638;2023-11-21T02:26:10;100348.63;;;13.68;59.59
28344;BME280;15597;50.914;6.638;2023-11-21T02:28:36;100346.91;;;13.67;59.58
28344;BME280;15597;50.914;6.638;2023-11-21T02:31:02;100360.03;;;13.68;59.74
28344;BME280;15597;50.914;6.638;2023-11-21T02:33:30;100358.22;;;13.69;59.45
28344;BME280;15597;50.914;6.638;2023-11-21T02:36:00;100357.31;;;13.70;59.59
28344;BME280;15597;50.914;6.638;2023-11-21T02:38:25;100359.91;;;13.71;59.63
28344;BME280;15597;50.914;6.638;2023-11-21T02:40:51;100366.00;;;13.72;59.16
28344;BME280;15597;50.914;6.638;2023-11-21T02:43:16;100344.97;;;13.72;59.39
28344;BME280;15597;50.914;6.638;2023-11-21T02:45:42;100357.19;;;13.73;59.41
28344;BME280;15597;50.914;6.638;2023-11-21T02:48:08;100358.06;;;13.73;59.14
28344;BME280;15597;50.914;6.638;2023-11-21T02:50:34;100365.16;;;13.71;59.64
28344;BME280;15597;50.914;6.638;2023-11-21T02:53:01;100364.28;;;13.71;59.49
28344;BME280;15597;50.914;6.638;2023-11-21T02:55:27;100367.72;;;13.73;59.18
28344;BME280;15597;50.914;6.638;2023-11-21T02:57:53;100367.72;;;13.73;59.76
28344;BME280;15597;50.914;6.638;2023-11-21T03:00:18;100371.16;;;13.75;59.11
28344;BME280;15597;50.914;6.638;2023-11-21T03:02:44;100367.72;;;13.73;59.48
28344;BME280;15597;50.914;6.638;2023-11-21T03:05:10;100366.00;;;13.72;59.42
28344;BME280;15597;50.914;6.638;2023-11-21T03:07:37;100372.13;;;13.72;59.47
28344;BME280;15597;50.914;6.638;2023-11-21T03:10:03;100366.88;;;13.72;59.04
28344;BME280;15597;50.914;6.638;2023-11-21T03:12:29;100366.00;;;13.72;59.00
28344;BME280;15597;50.914;6.638;2023-11-21T03:14:55;100363.38;;;13.72;59.29
28344;BME280;15597;50.914;6.638;2023-11-21T03:17:21;100369.56;;;13.71;59.42
28344;BME280;15597;50.914;6.638;2023-11-21T03:19:46;100367.84;;;13.70;59.12
28344;BME280;15597;50.914;6.638;2023-11-21T03:22:12;100372.28;;;13.68;59.03
28344;BME280;15597;50.914;6.638;2023-11-21T03:24:38;100377.75;;;13.63;59.47
28344;BME280;15597;50.914;6.638;2023-11-21T03:27:04;100387.50;;;13.59;59.18
28344;BME280;15597;50.914;6.638;2023-11-21T03:29:30;100386.81;;;13.54;59.64
28344;BME280;15597;50.914;6.638;2023-11-21T03:31:56;100396.41;;;13.55;59.21
28344;BME280;15597;50.914;6.638;2023-11-21T03:34:26;100391.28;;;13.52;59.39
28344;BME280;15597;50.914;6.638;2023-11-21T03:36:54;100391.28;;;13.52;59.49
28344;BME280;15597;50.914;6.638;2023-11-21T03:39:20;100398.31;;;13.52;59.54
28344;BME280;15597;50.914;6.638;2023-11-21T03:41:46;100397.44;;;13.51;59.13
28344;BME280;15597;50.914;6.638;2023-11-21T03:44:12;100398.38;;;13.50;59.74
28344;BME280;15597;50.914;6.638;2023-11-21T03:46:38;100403.63;;;13.50;59.77
28344;BME280;15597;50.914;6.638;2023-11-21T03:49:04;100410.59;;;13.51;59.63
28344;BME280;15597;50.914;6.638;2023-11-21T03:51:29;100414.94;;;13.52;59.69
28344;BME280;15597;50.914;6.638;2023-11-21T03:53:55;100421.00;;;13.54;59.39
28344;BME280;15597;50.914;6.638;2023-11-21T03:56:21;100431.41;;;13.57;59.65
28344;BME280;15597;50.914;6.638;2023-11-21T03:58:49;100431.28;;;13.61;59.27
28344;BME280;15597;50.914;6.638;2023-11-21T04:01:21;100426.13;;;13.57;59.65
28344;BME280;15597;50.914;6.638;2023-11-21T04:03:48;100430.38;;;13.62;59.40
28344;BME280;15597;50.914;6.638;2023-11-21T04:06:13;100433.00;;;13.62;59.73
28344;BME280;15597;50.914;6.638;2023-11-21T04:08:39;100436.44;;;13.64;59.67
28344;BME280;15597;50.914;6.638;2023-11-21T04:11:04;100439.84;;;13.66;59.60
28344;BME280;15597;50.914;6.638;2023-11-21T04:13:30;100441.53;;;13.68;59.41
28344;BME280;15597;50.914;6.638;2023-11-21T04:15:56;100431.00;;;13.68;59.50
28344;BME280;15597;50.914;6.638;2023-11-21T04:18:22;100434.47;;;13.69;59.56
28344;BME280;15597;50.914;6.638;2023-11-21T04:20:48;100438.78;;;13.71;59.48
28344;BME280;15597;50.914;6.638;2023-11-21T04:23:14;100439.50;;;13.75;59.76
28344;BME280;15597;50.914;6.638;2023-11-21T04:25:40;100442.03;;;13.78;59.58
28344;BME280;15597;50.914;6.638;2023-11-21T04:28:06;100437.59;;;13.80;59.33
28344;BME280;15597;50.914;6.638;2023-11-21T04:30:31;100443.66;;;13.82;59.52
28344;BME280;15597;50.914;6.638;2023-11-21T04:32:58;100446.19;;;13.85;59.57
28344;BME280;15597;50.914;6.638;2023-11-21T04:35:23;100441.72;;;13.87;59.46
28344;BME280;15597;50.914;6.638;2023-11-21T04:37:49;100445.16;;;13.90;59.60
28344;BME280;15597;50.914;6.638;2023-11-21T04:40:16;100441.59;;;13.91;59.43
28344;BME280;15597;50.914;6.638;2023-11-21T04:42:42;100442.41;;;13.93;59.59
28344;BME280;15597;50.914;6.638;2023-11-21T04:45:08;100446.75;;;13.94;59.00
28344;BME280;15597;50.914;6.638;2023-11-21T04:47:35;100443.13;;;13.96;59.20
28344;BME280;15597;50.914;6.638;2023-11-21T04:50:02;100443.88;;;14.00;58.92
28344;BME280;15597;50.914;6.638;2023-11-21T04:52:28;100442.09;;;14.00;59.04
28344;BME280;15597;50.914;6.638;2023-11-21T04:54:54;100442.16;;;13.99;59.38
28344;BME280;15597;50.914;6.638;2023-11-21T04:57:20;100447.44;;;13.99;59.07
28344;BME280;15597;50.914;6.638;2023-11-21T04:59:50;100447.44;;;13.99;59.35
28344;BME280;15597;50.914;6.638;2023-11-21T05:02:16;100449.97;;;14.00;59.17
28344;BME280;15597;50.914;6.638;2023-11-21T05:04:42;100454.41;;;14.00;59.12
28344;BME280;15597;50.914;6.638;2023-11-21T05:07:08;100460.56;;;13.99;58.96
28344;BME280;15597;50.914;6.638;2023-11-21T05:09:33;100462.28;;;14.00;58.90
28344;BME280;15597;50.914;6.638;2023-11-21T05:11:59;100464.81;;;14.03;59.10
28344;BME280;15597;50.914;6.638;2023-11-21T05:14:25;100464.81;;;14.03;58.49
28344;BME280;15597;50.914;6.638;2023-11-21T05:16:51;100467.47;;;14.01;58.75
28344;BME280;15597;50.914;6.638;2023-11-21T05:19:17;100473.72;;;13.99;58.80
28344;BME280;15597;50.914;6.638;2023-11-21T05:21:43;100476.41;;;13.97;59.00
28344;BME280;15597;50.914;6.638;2023-11-21T05:24:08;100482.53;;;13.98;58.99
28344;BME280;15597;50.914;6.638;2023-11-21T05:26:34;100475.50;;;13.98;59.09
28344;BME280;15597;50.914;6.638;2023-11-21T05:29:00;100471.13;;;13.97;58.89
28344;BME280;15597;50.914;6.638;2023-11-21T05:31:26;100481.66;;;13.97;59.20
28344;BME280;15597;50.914;6.638;2023-11-21T05:33:52;100486.94;;;13.97;59.23
28344;BME280;15597;50.914;6.638;2023-11-21T05:36:18;100489.50;;;13.99;58.82
28344;BME280;15597;50.914;6.638;2023-11-21T05:38:44;100489.50;;;13.99;58.93
28344;BME280;15597;50.914;6.638;2023-11-21T05:41:09;100491.22;;;14.00;58.87
28344;BME280;15597;50.914;6.638;2023-11-21T05:43:39;100503.34;;;14.04;58.63
28344;BME280;15597;50.914;6.638;2023-11-21T05:46:05;100506.78;;;14.06;58.99
28344;BME280;15597;50.914;6.638;2023-11-21T05:48:32;100511.94;;;14.09;58.79
28344;BME280;15597;50.914;6.638;2023-11-21T05:50:58;100511.00;;;14.10;58.81
28344;BME280;15597;50.914;6.638;2023-11-21T05:53:24;100510.09;;;14.11;58.64
28344;BME280;15597;50.914;6.638;2023-11-21T05:55:50;100510.94;;;14.12;58.52
28344;BME280;15597;50.914;6.638;2023-11-21T05:58:16;100508.28;;;14.13;58.59
28344;BME280;15597;50.914;6.638;2023-11-21T06:00:41;100522.34;;;14.12;58.76
28344;BME280;15597;50.914;6.638;2023-11-21T06:03:07;100525.88;;;14.11;58.41
28344;BME280;15597;50.914;6.638;2023-11-21T06:05:33;100527.59;;;14.12;58.77
28344;BME280;15597;50.914;6.638;2023-11-21T06:07:59;100536.41;;;14.11;58.75
28344;BME280;15597;50.914;6.638;2023-11-21T06:10:27;100542.84;;;14.02;58.81
28344;BME280;15597;50.914;6.638;2023-11-21T06:12:53;100540.19;;;14.04;58.84
28344;BME280;15597;50.914;6.638;2023-11-21T06:15:19;100541.91;;;14.05;58.94
28344;BME280;15597;50.914;6.638;2023-11-21T06:17:46;100542.63;;;14.09;58.86
28344;BME280;15597;50.914;6.638;2023-11-21T06:20:15;100539.97;;;14.10;58.67
28344;BME280;15597;50.914;6.638;2023-11-21T06:22:42;100546.94;;;14.11;58.67
28344;BME280;15597;50.914;6.638;2023-11-21T06:25:08;100547.72;;;14.13;58.82
28344;BME280;15597;50.914;6.638;2023-11-21T06:27:37;100553.00;;;14.13;58.42
28344;BME280;15597;50.914;6.638;2023-11-21T06:30:04;100556.47;;;14.14;58.48
28344;BME280;15597;50.914;6.638;2023-11-21T06:32:30;100565.13;;;14.17;58.46
28344;BME280;15597;50.914;6.638;2023-11-21T06:34:56;100564.22;;;14.19;58.62
28344;BME280;15597;50.914;6.638;2023-11-21T06:37:26;100562.50;;;14.17;58.46
28344;BME280;15597;50.914;6.638;2023-11-21T06:39:52;100564.31;;;14.15;58.50
28344;BME280;15597;50.914;6.638;2023-11-21T06:42:18;100563.41;;;14.16;58.54
28344;BME280;15597;50.914;6.638;2023-11-21T06:44:47;100565.16;;;14.16;58.56
28344;BME280;15597;50.914;6.638;2023-11-21T06:47:13;100572.25;;;14.14;58.63
28344;BME280;15597;50.914;6.638;2023-11-21T06:49:39;100572.31;;;14.12;58.21
28344;BME280;15597;50.914;6.638;2023-11-21T06:52:05;100582.06;;;14.10;58.27
28344;BME280;15597;50.914;6.638;2023-11-21T06:54:31;100576.84;;;14.09;58.38
28344;BME280;15597;50.914;6.638;2023-11-21T06:56:57;100589.19;;;14.07;58.23
28344;BME280;15597;50.914;6.638;2023-11-21T06:59:22;100590.16;;;14.04;58.60
28344;BME280;15597;50.914;6.638;2023-11-21T07:02:07;100596.47;;;14.00;58.85
28344;BME280;15597;50.914;6.638;2023-11-21T07:04:33;100601.72;;;14.00;58.83
28344;BME280;15597;50.914;6.638;2023-11-21T07:06:59;100607.88;;;13.99;58.70
28344;BME280;15597;50.914;6.638;2023-11-21T07:09:25;100610.53;;;13.99;58.78
28344;BME280;15597;50.914;6.638;2023-11-21T07:11:54;100617.50;;;14.00;58.67
28344;BME280;15597;50.914;6.638;2023-11-21T07:14:20;100609.53;;;14.01;58.78
28344;BME280;15597;50.914;6.638;2023-11-21T07:16:46;100606.00;;;14.02;58.73
28344;BME280;15597;50.914;6.638;2023-11-21T07:19:13;100617.41;;;14.03;58.65
28344;BME280;15597;50.914;6.638;2023-11-21T07:21:39;100625.41;;;14.00;58.76
28344;BME280;15597;50.914;6.638;2023-11-21T07:24:05;100638.47;;;14.01;58.38
28344;BME280;15597;50.914;6.638;2023-11-21T07:26:34;100642.91;;;14.01;58.98
28344;BME280;15597;50.914;6.638;2023-11-21T07:29:01;100646.44;;;14.00;58.55
28344;BME280;15597;50.914;6.638;2023-11-21T07:31:27;100656.03;;;14.01;58.71
28344;BME280;15597;50.914;6.638;2023-11-21T07:33:52;100648.97;;;14.03;58.43
28344;BME280;15597;50.914;6.638;2023-11-21T07:36:19;100655.94;;;14.04;58.66
28344;BME280;15597;50.914;6.638;2023-11-21T07:38:46;100653.31;;;14.04;58.74
28344;BME280;15597;50.914;6.638;2023-11-21T07:41:12;100648.06;;;14.04;58.74
28344;BME280;15597;50.914;6.638;2023-11-21T07:43:42;100652.41;;;14.05;58.68
28344;BME280;15597;50.914;6.638;2023-11-21T07:46:07;100653.31;;;14.04;58.60
28344;BME280;15597;50.914;6.638;2023-11-21T07:48:34;100648.97;;;14.03;58.45
28344;BME280;15597;50.914;6.638;2023-11-21T07:51:01;100648.97;;;14.03;58.85
28344;BME280;15597;50.914;6.638;2023-11-21T07:53:29;100657.78;;;14.02;58.89
28344;BME280;15597;50.914;6.638;2023-11-21T07:56:00;100656.16;;;13.98;58.99
28344;BME280;15597;50.914;6.638;2023-11-21T07:58:27;100668.44;;;13.97;58.74
28344;BME280;15597;50.914;6.638;2023-11-21T08:00:54;100672.03;;;13.95;58.75
28344;BME280;15597;50.914;6.638;2023-11-21T08:03:19;100674.72;;;13.93;58.97
28344;BME280;15597;50.914;6.638;2023-11-21T08:05:45;100683.59;;;13.91;59.01
28344;BME280;15597;50.914;6.638;2023-11-21T08:08:10;100689.88;;;13.86;59.22
28344;BME280;15597;50.914;6.638;2023-11-21T08:10:36;100693.41;;;13.85;58.98
28344;BME280;15597;50.914;6.638;2023-11-21T08:13:02;100695.22;;;13.83;58.99
28344;BME280;15597;50.914;6.638;2023-11-21T08:15:29;100702.31;;;13.81;59.23
28344;BME280;15597;50.914;6.638;2023-11-21T08:17:57;100702.69;;;13.69;59.65
28344;BME280;15597;50.914;6.638;2023-11-21T08:20:22;100715.84;;;13.69;59.76
28344;BME280;15597;50.914;6.638;2023-11-21T08:22:49;100723.69;;;13.70;59.40
28344;BME280;15597;50.914;6.638;2023-11-21T08:25:15;100725.34;;;13.73;59.92
28344;BME280;15597;50.914;6.638;2023-11-21T08:27:40;100730.50;;;13.76;59.30
28344;BME280;15597;50.914;6.638;2023-11-21T08:30:06;100726.13;;;13.77;59.40
28344;BME280;15597;50.914;6.638;2023-11-21T08:32:32;100729.56;;;13.79;59.24
28344;BME280;15597;50.914;6.638;2023-11-21T08:34:59;100728.59;;;13.81;59.41
28344;BME280;15597;50.914;6.638;2023-11-21T08:37:25;100738.22;;;13.82;59.17
28344;BME280;15597;50.914;6.638;2023-11-21T08:39:52;100738.22;;;13.82;59.52
28344;BME280;15597;50.914;6.638;2023-11-21T08:42:18;100737.31;;;13.83;59.44
28344;BME280;15597;50.914;6.638;2023-11-21T08:44:44;100740.75;;;13.85;59.52
28344;BME280;15597;50.914;6.638;2023-11-21T08:47:11;100743.28;;;13.88;59.43
28344;BME280;15597;50.914;6.638;2023-11-21T08:49:37;100744.91;;;13.93;59.18
28344;BME280;15597;50.914;6.638;2023-11-21T08:52:03;100740.53;;;13.92;59.50
28344;BME280;15597;50.914;6.638;2023-11-21T08:54:31;100744.81;;;13.94;59.01
28344;BME280;15597;50.914;6.638;2023-11-21T08:56:56;100746.53;;;13.95;59.12
28344;BME280;15597;50.914;6.638;2023-11-21T08:59:24;100750.06;;;13.96;58.98
28344;BME280;15597;50.914;6.638;2023-11-21T09:01:50;100749.25;;;13.94;59.47
28344;BME280;15597;50.914;6.638;2023-11-21T09:04:16;100752.78;;;13.93;59.05
28344;BME280;15597;50.914;6.638;2023-11-21T09:06:41;100764.13;;;13.95;59.45
28344;BME280;15597;50.914;6.638;2023-11-21T09:09:07;100755.31;;;13.96;59.16
28344;BME280;15597;50.914;6.638;2023-11-21T09:11:33;100762.44;;;13.92;59.29
28344;BME280;15597;50.914;6.638;2023-11-21T09:14:03;100765.13;;;13.91;59.48
28344;BME280;15597;50.914;6.638;2023-11-21T09:16:29;100767.75;;;13.91;59.75
28344;BME280;15597;50.914;6.638;2023-11-21T09:18:54;100760.78;;;13.90;59.65
28344;BME280;15597;50.914;6.638;2023-11-21T09:21:20;100763.50;;;13.86;59.69
28344;BME280;15597;50.914;6.638;2023-11-21T09:23:46;100765.22;;;13.87;59.57
28344;BME280;15597;50.914;6.638;2023-11-21T09:26:12;100772.31;;;13.85;59.99
28344;BME280;15597;50.914;6.638;2023-11-21T09:28:37;100779.38;;;13.83;59.58
28344;BME280;15597;50.914;6.638;2023-11-21T09:31:06;100788.19;;;13.82;60.10
28344;BME280;15597;50.914;6.638;2023-11-21T09:33:34;100782.06;;;13.82;59.84
28344;BME280;15597;50.914;6.638;2023-11-21T09:36:00;100784.66;;;13.83;59.81
28344;BME280;15597;50.914;6.638;2023-11-21T09:38:26;100794.28;;;13.83;60.10
28344;BME280;15597;50.914;6.638;2023-11-21T09:40:54;100807.41;;;13.84;60.18
28344;BME280;15597;50.914;6.638;2023-11-21T09:43:20;100803.88;;;13.85;60.09
28344;BME280;15597;50.914;6.638;2023-11-21T09:45:51;100800.34;;;13.86;60.25
28344;BME280;15597;50.914;6.638;2023-11-21T09:48:20;100799.47;;;13.86;60.15
28344;BME280;15597;50.914;6.638;2023-11-21T09:50:47;100808.16;;;13.88;60.52
28344;BME280;15597;50.914;6.638;2023-11-21T09:53:17;100815.22;;;13.87;60.39
28344;BME280;15597;50.914;6.638;2023-11-21T09:55:44;100808.13;;;13.90;60.22
28344;BME280;15597;50.914;6.638;2023-11-21T09:58:11;100808.44;;;13.79;60.69
28344;BME280;15597;50.914;6.638;2023-11-21T10:00:42;100813.63;;;13.82;60.31
28344;BME280;15597;50.914;6.638;2023-11-21T10:03:08;100816.22;;;13.83;60.18
28344;BME280;15597;50.914;6.638;2023-11-21T10:05:35;100817.94;;;13.84;60.59
28344;BME280;15597;50.914;6.638;2023-11-21T10:08:03;100817.84;;;13.87;60.49
28344;BME280;15597;50.914;6.638;2023-11-21T10:10:29;100822.47;;;13.79;60.29
28344;BME280;15597;50.914;6.638;2023-11-21T10:13:01;100817.16;;;13.81;60.59
28344;BME280;15597;50.914;6.638;2023-11-21T10:15:29;100826.63;;;13.86;60.22
28344;BME280;15597;50.914;6.638;2023-11-21T10:17:55;100828.25;;;13.91;60.49
28344;BME280;15597;50.914;6.638;2023-11-21T10:20:23;100826.38;;;13.94;60.08
28344;BME280;15597;50.914;6.638;2023-11-21T10:22:50;100824.53;;;13.98;60.64
28344;BME280;15597;50.914;6.638;2023-11-21T10:25:15;100824.44;;;14.01;60.21
28344;BME280;15597;50.914;6.638;2023-11-21T10:27:42;100827.88;;;14.03;59.95
28344;BME280;15597;50.914;6.638;2023-11-21T10:30:09;100826.03;;;14.05;60.37
28344;BME280;15597;50.914;6.638;2023-11-21T10:32:42;100826.03;;;14.05;60.44
28344;BME280;15597;50.914;6.638;2023-11-21T10:35:09;100827.66;;;14.09;60.33
28344;BME280;15597;50.914;6.638;2023-11-21T10:37:41;100827.59;;;14.11;60.09
28344;BME280;15597;50.914;6.638;2023-11-21T10:40:09;100832.81;;;14.12;60.03
28344;BME280;15597;50.914;6.638;2023-11-21T10:42:38;100828.41;;;14.13;60.04
28344;BME280;15597;50.914;6.638;2023-11-21T10:45:05;100827.47;;;14.15;60.29
28344;BME280;15597;50.914;6.638;2023-11-21T10:47:38;100836.16;;;14.17;60.17
28344;BME280;15597;50.914;6.638;2023-11-21T10:50:04;100837.00;;;14.18;60.29
28344;BME280;15597;50.914;6.638;2023-11-21T10:52:30;100837.88;;;14.19;60.00
28344;BME280;15597;50.914;6.638;2023-11-21T10:54:56;100835.25;;;14.19;59.87
28344;BME280;15597;50.914;6.638;2023-11-21T10:57:24;100834.66;;;14.10;60.54
28344;BME280;15597;50.914;6.638;2023-11-21T10:59:54;100834.66;;;14.10;60.64
28344;BME280;15597;50.914;6.638;2023-11-21T11:02:26;100838.03;;;14.14;59.99
28344;BME280;15597;50.914;6.638;2023-11-21T11:04:57;100844.88;;;14.20;60.40
28344;BME280;15597;50.914;6.638;2023-11-21T11:07:27;100841.22;;;14.24;60.05
28344;BME280;15597;50.914;6.638;2023-11-21T11:09:54;100846.41;;;14.27;60.05
28344;BME280;15597;50.914;6.638;2023-11-21T11:12:20;100842.84;;;14.28;60.08
28344;BME280;15597;50.914;6.638;2023-11-21T11:14:48;100847.25;;;14.27;59.83
28344;BME280;15597;50.914;6.638;2023-11-21T11:17:14;100846.41;;;14.27;60.24
28344;BME280;15597;50.914;6.638;2023-11-21T11:19:40;100848.94;;;14.30;60.27
28344;BME280;15597;50.914;6.638;2023-11-21T11:22:12;100861.13;;;14.32;59.85
28344;BME280;15597;50.914;6.638;2023-11-21T11:24:44;100856.81;;;14.30;59.76
28344;BME280;15597;50.914;6.638;2023-11-21T11:27:36;100850.75;;;14.28;60.07
28344;BME280;15597;50.914;6.638;2023-11-21T11:33:48;100858.03;;;14.20;60.04
28344;BME280;15597;50.914;6.638;2023-11-21T11:36:23;100857.22;;;14.17;60.30
28344;BME280;15597;50.914;6.638;2023-11-21T11:38:50;100860.56;;;14.23;60.58
28344;BME280;15597;50.914;6.638;2023-11-21T11:41:30;100858.75;;;14.25;60.30
28344;BME280;15597;50.914;6.638;2023-11-21T11:43:59;100870.78;;;14.32;60.21
28344;BME280;15597;50.914;6.638;2023-11-21T11:46:44;100868.19;;;14.30;60.01
28344;BME280;15597;50.914;6.638;2023-11-21T11:49:27;100871.66;;;14.32;59.97
28344;BME280;15597;50.914;6.638;2023-11-21T11:54:56;100874.31;;;14.32;60.03
28344;BME280;15597;50.914;6.638;2023-11-21T11:57:26;100872.56;;;14.31;60.03
28344;BME280;15597;50.914;6.638;2023-11-21T12:00:20;100879.69;;;14.28;60.04
28344;BME280;15597;50.914;6.638;2023-11-21T12:02:51;100863.91;;;14.28;60.17
28344;BME280;15597;50.914;6.638;2023-11-21T12:05:19;100871.72;;;14.29;60.07
28344;BME280;15597;50.914;6.638;2023-11-21T12:07:55;100881.41;;;14.29;60.19
28344;BME280;15597;50.914;6.638;2023-11-21T12:10:27;100878.81;;;14.27;60.30
28344;BME280;15597;50.914;6.638;2023-11-21T12:12:58;100877.88;;;14.30;60.08
28344;BME280;15597;50.914;6.638;2023-11-21T12:15:25;100882.19;;;14.32;60.14
28344;BME280;15597;50.914;6.638;2023-11-21T12:17:51;100879.50;;;14.34;59.97
28344;BME280;15597;50.914;6.638;2023-11-21T12:20:22;100879.56;;;14.32;60.18
28344;BME280;15597;50.914;6.638;2023-11-21T12:22:49;100883.84;;;14.35;60.04
28344;BME280;15597;50.914;6.638;2023-11-21T12:25:23;100897.00;;;14.35;60.26
28344;BME280;15597;50.914;6.638;2023-11-21T12:27:51;100894.34;;;14.37;60.30
28344;BME280;15597;50.914;6.638;2023-11-21T12:30:22;100892.63;;;14.36;60.06
28344;BME280;15597;50.914;6.638;2023-11-21T12:32:50;100894.38;;;14.35;60.10
28344;BME280;15597;50.914;6.638;2023-11-21T12:35:20;100887.38;;;14.36;60.15
28344;BME280;15597;50.914;6.638;2023-11-21T12:37:46;100891.66;;;14.38;59.90
28344;BME280;15597;50.914;6.638;2023-11-21T12:40:14;100892.44;;;14.42;59.85
28344;BME280;15597;50.914;6.638;2023-11-21T12:43:01;100897.69;;;14.42;60.10
28344;BME280;15597;50.914;6.638;2023-11-21T12:45:29;100901.88;;;14.48;60.02
28344;BME280;15597;50.914;6.638;2023-11-21T12:47:58;100907.94;;;14.50;60.06
28344;BME280;15597;50.914;6.638;2023-11-21T12:50:26;100903.59;;;14.49;59.77
28344;BME280;15597;50.914;6.638;2023-11-21T12:53:10;100913.47;;;14.42;59.92
28344;BME280;15597;50.914;6.638;2023-11-21T12:55:43;100907.34;;;14.41;59.94
28344;BME280;15597;50.914;6.638;2023-11-21T12:58:15;100913.47;;;14.42;59.92